Medi Baltimore — ICLW — position and weather

sailwx.info

Track history (hours):
 
Tides and Currents Weather Stations Pressure Air Temp Water Temp Dewpoint Dewpoint Depression Visibility Wind Speed Wind Dir Waves Ship Positions

Medi Baltimore

Last reported at 2017-Apr-25 16:18 UTC. Time now 2017-Apr-26 23:35 UTC.
Position N 10°27' W 014°44'.

Length 225 m; draft 8 m.

Type: Cargo ship. MMSI: 247255300.

Date/timePositionNaut miles runAvg speedWind from/ knotsBaromVisibWave heightAir tempDewpointWater temp
2017-Apr-25 16:18N 10°27' W 014°44'0 0.0
2017-Apr-25 16:00N 10°27' W 014°44'0 0.1
2017-Apr-25 12:44N 10°27' W 014°44'0 0.0
2017-Apr-25 12:23N 10°27' W 014°44'0 0.0
2017-Apr-25 10:24N 10°27' W 014°44'0 0.2
2017-Apr-25 10:01N 10°27' W 014°44'0 0.4
2017-Apr-25 09:27N 10°27' W 014°44'14 1.7
2017-Apr-25 01:04N 10°16' W 014°54'313.0
2017-Apr-25 00:51N 10°15' W 014°56'412.9
2017-Apr-25 00:30N 10°13' W 015°00'612.3
2017-Apr-25 00:00N 10°09' W 015°05'713.0
2017-Apr-24 23:30N 10°07' W 015°12'613.0
2017-Apr-24 23:00N 10°05' W 015°18'812.8
2017-Apr-24 22:24N 10°03' W 015°25'513.5
2017-Apr-24 22:00N 10°03' W 015°31'813.9
2017-Apr-24 21:26N 10°04' W 015°39'614.0
2017-Apr-24 21:00N 10°04' W 015°45'714.0
2017-Apr-24 20:30N 10°04' W 015°52'714.1
2017-Apr-24 20:00N 10°04' W 015°59'1014.2
2017-Apr-24 19:20N 10°04' W 016°09'514.4
2017-Apr-24 19:00N 10°04' W 016°14'714.3
2017-Apr-24 18:30N 10°04' W 016°21'714.3
2017-Apr-24 18:00N 10°04' W 016°28'714.1
2017-Apr-24 17:30N 10°04' W 016°35'713.9
2017-Apr-24 17:00N 10°10' W 016°39'2614.3
2017-Apr-24 15:14N 10°32' W 016°52'414.2
2017-Apr-24 14:59N 10°35' W 016°54'714.3
2017-Apr-24 14:30N 10°40' W 016°58'  
2017-Apr-21 02:41N 28°06' W 013°37'213.7
2017-Apr-21 02:30N 28°08' W 013°35'1413.9
2017-Apr-21 01:31N 28°20' W 013°28'114.4
2017-Apr-21 01:27N 28°21' W 013°27'614.2
2017-Apr-21 01:00N 28°26' W 013°24'714.0
2017-Apr-21 00:28N 28°33' W 013°20'714.1
2017-Apr-21 00:00N 28°39' W 013°16'714.2
2017-Apr-20 23:29N 28°45' W 013°12'714.1
2017-Apr-20 22:59N 28°51' W 013°08'714.1
2017-Apr-20 22:30N 28°57' W 013°04'714.2
2017-Apr-20 22:00N 29°04' W 013°01'34013.3
2017-Apr-19 20:31N 33°41' W 009°12'113.7
2017-Apr-19 20:28N 33°42' W 009°11'713.7
2017-Apr-19 19:59N 33°46' W 009°05'713.7
2017-Apr-19 19:30N 33°51' W 008°59'713.6
2017-Apr-19 19:00N 33°56' W 008°54'713.6
2017-Apr-19 18:30N 34°00' W 008°48'713.6
2017-Apr-19 18:00N 34°05' W 008°42'713.8
2017-Apr-19 17:30N 34°10' W 008°35'713.8
2017-Apr-19 17:00N 34°14' W 008°29'6013.6
2017-Apr-19 12:37N 34°55' W 007°37'213.2
2017-Apr-19 12:27N 34°57' W 007°35'613.4
2017-Apr-19 11:59N 35°01' W 007°30'913.2
2017-Apr-19 11:17N 35°08' W 007°21'413.4
2017-Apr-19 11:00N 35°10' W 007°18'8012.9
2017-Apr-19 04:47N 35°58' W 005°58'414.1
2017-Apr-19 04:30N 35°58' W 005°53'714.4
2017-Apr-19 04:00N 35°58' W 005°45'713.4
2017-Apr-19 03:31N 35°58' W 005°36'612.4
2017-Apr-19 03:00N 35°60' W 005°29'611.5
2017-Apr-19 02:30N 36°01' W 005°22'611.5
2017-Apr-19 02:00N 36°02' W 005°15'612.3
2017-Apr-19 01:30N 36°03' W 005°08'613.0
2017-Apr-19 01:00N 36°04' W 004°60'713.0
2017-Apr-19 00:30N 36°05' W 004°52'2012.4
2017-Apr-18 22:52N 36°09' W 004°27'411.8
2017-Apr-18 22:30N 36°10' W 004°22'3012.9
2017-Apr-18 20:12N 36°14' W 003°45'513.3
2017-Apr-18 19:50N 36°15' W 003°40'613.4
2017-Apr-18 19:23N 36°16' W 003°32'2113.7
2017-Apr-18 17:52N 36°19' W 003°06'513.7
2017-Apr-18 17:30N 36°19' W 003°00'713.7
2017-Apr-18 17:00N 36°20' W 002°52'713.6
2017-Apr-18 16:30N 36°21' W 002°44'713.4
2017-Apr-18 16:00N 36°22' W 002°35'713.6
2017-Apr-18 15:28N 36°24' W 002°26'1313.9
2017-Apr-18 14:31N 36°26' W 002°10'014.2
2017-Apr-18 14:30N 36°26' W 002°10'1814.3
2017-Apr-18 13:15N 36°31' W 001°49'414.3
2017-Apr-18 12:59N 36°32' W 001°44'3013.8
2017-Apr-18 10:47N 36°39' W 001°07'513.5
2017-Apr-18 10:23N 36°41' W 001°01'513.6
2017-Apr-18 09:59N 36°42' W 000°54'613.5
2017-Apr-18 09:30N 36°44' W 000°47'913.4
2017-Apr-18 08:51N 36°46' W 000°36'1413.7
2017-Apr-18 07:51N 36°49' W 000°19'514.0
2017-Apr-18 07:30N 36°51' W 000°13'714.1
2017-Apr-18 07:01N 36°52' W 000°05'714.0
2017-Apr-18 06:31N 36°54' E 000°03'713.9
2017-Apr-18 06:01N 36°56' E 000°12'713.9
2017-Apr-18 05:30N 36°58' E 000°20'713.8
2017-Apr-18 05:00N 36°59' E 000°29'813.4
2017-Apr-18 04:23N 37°01' E 000°39'912.9
2017-Apr-18 03:40N 37°04' E 000°50'312.8
2017-Apr-18 03:26N 37°04' E 000°54'912.7
2017-Apr-18 02:43N 37°06' E 001°05'313.0
2017-Apr-18 02:30N 37°07' E 001°08'713.2
2017-Apr-18 02:00N 37°09' E 001°16'713.4
2017-Apr-18 01:30N 37°11' E 001°24'713.5
2017-Apr-18 01:00N 37°13' E 001°32'713.5
2017-Apr-18 00:30N 37°15' E 001°40'713.3
2017-Apr-18 00:00N 37°16' E 001°48'713.3
2017-Apr-17 23:30N 37°18' E 001°56'713.3
2017-Apr-17 22:58N 37°20' E 002°05'713.8
2017-Apr-17 22:30N 37°22' E 002°13'814.3
2017-Apr-17 21:58N 37°24' E 002°22'714.7
2017-Apr-17 21:30N 37°25' E 002°31'714.8
2017-Apr-17 21:00N 37°27' E 002°40'714.7
2017-Apr-17 20:30N 37°29' E 002°49'714.2
2017-Apr-17 20:00N 37°31' E 002°57'1613.8
2017-Apr-17 18:52N 37°35' E 003°16'513.8
2017-Apr-17 18:30N 37°36' E 003°23'1413.8
2017-Apr-17 17:28N 37°40' E 003°40'613.8
2017-Apr-17 17:00N 37°41' E 003°48'23012.9
2017-Apr-16 23:10N 38°40' E 008°31'412.4
2017-Apr-16 22:51N 38°41' E 008°36'512.8
2017-Apr-16 22:30N 38°42' E 008°42'612.9
2017-Apr-16 22:00N 38°43' E 008°49'1213.0
2017-Apr-16 21:07N 38°46' E 009°04'213.4
2017-Apr-16 20:58N 38°47' E 009°06'713.8
2017-Apr-16 20:30N 38°48' E 009°14'1013.8
2017-Apr-16 19:46N 38°51' E 009°27'413.4
2017-Apr-16 19:30N 38°52' E 009°31'  
Track history (hours):
 
Tides and Currents Weather Stations Pressure Air Temp Water Temp Dewpoint Dewpoint Depression Visibility Wind Speed Wind Dir Waves Ship Positions

Medi Baltimore

Last reported at 2017-Apr-25 16:18 UTC. Time now 2017-Apr-26 23:35 UTC.
Position N 10°27' W 014°44'.

Length 225 m; draft 8 m.

Type: Cargo ship. MMSI: 247255300.

Date/timePositionNaut miles runAvg speedWind from/ knotsBaromVisibWave heightAir tempDewpointWater temp
2017-Apr-25 16:18N 10°27' W 014°44'0 0.0
2017-Apr-25 16:00N 10°27' W 014°44'0 0.1
2017-Apr-25 12:44N 10°27' W 014°44'0 0.0
2017-Apr-25 12:23N 10°27' W 014°44'0 0.0
2017-Apr-25 10:24N 10°27' W 014°44'0 0.2
2017-Apr-25 10:01N 10°27' W 014°44'0 0.4
2017-Apr-25 09:27N 10°27' W 014°44'14 1.7
2017-Apr-25 01:04N 10°16' W 014°54'313.0
2017-Apr-25 00:51N 10°15' W 014°56'412.9
2017-Apr-25 00:30N 10°13' W 015°00'612.3
2017-Apr-25 00:00N 10°09' W 015°05'713.0
2017-Apr-24 23:30N 10°07' W 015°12'613.0
2017-Apr-24 23:00N 10°05' W 015°18'812.8
2017-Apr-24 22:24N 10°03' W 015°25'513.5
2017-Apr-24 22:00N 10°03' W 015°31'813.9
2017-Apr-24 21:26N 10°04' W 015°39'614.0
2017-Apr-24 21:00N 10°04' W 015°45'714.0
2017-Apr-24 20:30N 10°04' W 015°52'714.1
2017-Apr-24 20:00N 10°04' W 015°59'1014.2
2017-Apr-24 19:20N 10°04' W 016°09'514.4
2017-Apr-24 19:00N 10°04' W 016°14'714.3
2017-Apr-24 18:30N 10°04' W 016°21'714.3
2017-Apr-24 18:00N 10°04' W 016°28'714.1
2017-Apr-24 17:30N 10°04' W 016°35'713.9
2017-Apr-24 17:00N 10°10' W 016°39'2614.3
2017-Apr-24 15:14N 10°32' W 016°52'414.2
2017-Apr-24 14:59N 10°35' W 016°54'714.3
2017-Apr-24 14:30N 10°40' W 016°58'  
2017-Apr-21 02:41N 28°06' W 013°37'213.7
2017-Apr-21 02:30N 28°08' W 013°35'1413.9
2017-Apr-21 01:31N 28°20' W 013°28'114.4
2017-Apr-21 01:27N 28°21' W 013°27'614.2
2017-Apr-21 01:00N 28°26' W 013°24'714.0
2017-Apr-21 00:28N 28°33' W 013°20'714.1
2017-Apr-21 00:00N 28°39' W 013°16'714.2
2017-Apr-20 23:29N 28°45' W 013°12'714.1
2017-Apr-20 22:59N 28°51' W 013°08'714.1
2017-Apr-20 22:30N 28°57' W 013°04'714.2
2017-Apr-20 22:00N 29°04' W 013°01'34013.3
2017-Apr-19 20:31N 33°41' W 009°12'113.7
2017-Apr-19 20:28N 33°42' W 009°11'713.7
2017-Apr-19 19:59N 33°46' W 009°05'713.7
2017-Apr-19 19:30N 33°51' W 008°59'713.6
2017-Apr-19 19:00N 33°56' W 008°54'713.6
2017-Apr-19 18:30N 34°00' W 008°48'713.6
2017-Apr-19 18:00N 34°05' W 008°42'713.8
2017-Apr-19 17:30N 34°10' W 008°35'713.8
2017-Apr-19 17:00N 34°14' W 008°29'6013.6
2017-Apr-19 12:37N 34°55' W 007°37'213.2
2017-Apr-19 12:27N 34°57' W 007°35'613.4
2017-Apr-19 11:59N 35°01' W 007°30'913.2
2017-Apr-19 11:17N 35°08' W 007°21'413.4
2017-Apr-19 11:00N 35°10' W 007°18'8012.9
2017-Apr-19 04:47N 35°58' W 005°58'414.1
2017-Apr-19 04:30N 35°58' W 005°53'714.4
2017-Apr-19 04:00N 35°58' W 005°45'713.4
2017-Apr-19 03:31N 35°58' W 005°36'612.4
2017-Apr-19 03:00N 35°60' W 005°29'611.5
2017-Apr-19 02:30N 36°01' W 005°22'611.5
2017-Apr-19 02:00N 36°02' W 005°15'612.3
2017-Apr-19 01:30N 36°03' W 005°08'613.0
2017-Apr-19 01:00N 36°04' W 004°60'713.0
2017-Apr-19 00:30N 36°05' W 004°52'2012.4
2017-Apr-18 22:52N 36°09' W 004°27'411.8
2017-Apr-18 22:30N 36°10' W 004°22'3012.9
2017-Apr-18 20:12N 36°14' W 003°45'513.3
2017-Apr-18 19:50N 36°15' W 003°40'613.4
2017-Apr-18 19:23N 36°16' W 003°32'2113.7
2017-Apr-18 17:52N 36°19' W 003°06'513.7
2017-Apr-18 17:30N 36°19' W 003°00'713.7
2017-Apr-18 17:00N 36°20' W 002°52'713.6
2017-Apr-18 16:30N 36°21' W 002°44'713.4
2017-Apr-18 16:00N 36°22' W 002°35'713.6
2017-Apr-18 15:28N 36°24' W 002°26'1313.9
2017-Apr-18 14:31N 36°26' W 002°10'014.2
2017-Apr-18 14:30N 36°26' W 002°10'1814.3
2017-Apr-18 13:15N 36°31' W 001°49'414.3
2017-Apr-18 12:59N 36°32' W 001°44'3013.8
2017-Apr-18 10:47N 36°39' W 001°07'513.5
2017-Apr-18 10:23N 36°41' W 001°01'513.6
2017-Apr-18 09:59N 36°42' W 000°54'613.5
2017-Apr-18 09:30N 36°44' W 000°47'913.4
2017-Apr-18 08:51N 36°46' W 000°36'1413.7
2017-Apr-18 07:51N 36°49' W 000°19'514.0
2017-Apr-18 07:30N 36°51' W 000°13'714.1
2017-Apr-18 07:01N 36°52' W 000°05'714.0
2017-Apr-18 06:31N 36°54' E 000°03'713.9
2017-Apr-18 06:01N 36°56' E 000°12'713.9
2017-Apr-18 05:30N 36°58' E 000°20'713.8
2017-Apr-18 05:00N 36°59' E 000°29'813.4
2017-Apr-18 04:23N 37°01' E 000°39'912.9
2017-Apr-18 03:40N 37°04' E 000°50'312.8
2017-Apr-18 03:26N 37°04' E 000°54'912.7
2017-Apr-18 02:43N 37°06' E 001°05'313.0
2017-Apr-18 02:30N 37°07' E 001°08'713.2
2017-Apr-18 02:00N 37°09' E 001°16'713.4
2017-Apr-18 01:30N 37°11' E 001°24'713.5
2017-Apr-18 01:00N 37°13' E 001°32'713.5
2017-Apr-18 00:30N 37°15' E 001°40'713.3
2017-Apr-18 00:00N 37°16' E 001°48'713.3
2017-Apr-17 23:30N 37°18' E 001°56'713.3
2017-Apr-17 22:58N 37°20' E 002°05'713.8
2017-Apr-17 22:30N 37°22' E 002°13'814.3
2017-Apr-17 21:58N 37°24' E 002°22'714.7
2017-Apr-17 21:30N 37°25' E 002°31'714.8
2017-Apr-17 21:00N 37°27' E 002°40'714.7
2017-Apr-17 20:30N 37°29' E 002°49'714.2
2017-Apr-17 20:00N 37°31' E 002°57'1613.8
2017-Apr-17 18:52N 37°35' E 003°16'513.8
2017-Apr-17 18:30N 37°36' E 003°23'1413.8
2017-Apr-17 17:28N 37°40' E 003°40'613.8
2017-Apr-17 17:00N 37°41' E 003°48'23012.9
2017-Apr-16 23:10N 38°40' E 008°31'412.4
2017-Apr-16 22:51N 38°41' E 008°36'512.8
2017-Apr-16 22:30N 38°42' E 008°42'612.9
2017-Apr-16 22:00N 38°43' E 008°49'1213.0
2017-Apr-16 21:07N 38°46' E 009°04'213.4
2017-Apr-16 20:58N 38°47' E 009°06'713.8
2017-Apr-16 20:30N 38°48' E 009°14'1013.8
2017-Apr-16 19:46N 38°51' E 009°27'413.4
2017-Apr-16 19:30N 38°52' E 009°31'  

Dump ship's entire track history